createdAt,value
2022-12-25T00:02:16.477Z,6.23
2022-12-25T00:04:43.044Z,7.00
2022-12-25T00:07:09.599Z,6.40
2022-12-25T00:09:36.154Z,6.47
2022-12-25T00:12:02.745Z,5.83
2022-12-25T00:14:29.299Z,6.90
2022-12-25T00:16:55.853Z,6.27
2022-12-25T00:19:22.565Z,5.77
2022-12-25T00:21:49.106Z,6.80
2022-12-25T00:24:15.695Z,6.10
2022-12-25T00:26:42.255Z,6.20
2022-12-25T00:29:12.497Z,5.93
2022-12-25T00:31:39.290Z,5.93
2022-12-25T00:34:05.951Z,5.70
2022-12-25T00:36:37.786Z,6.07
2022-12-25T00:39:07.945Z,5.70
2022-12-25T00:41:53.144Z,5.50
2022-12-25T00:44:19.791Z,5.90
2022-12-25T00:46:46.524Z,5.67
2022-12-25T00:49:13.447Z,6.00
2022-12-25T00:51:40.113Z,5.33
2022-12-25T00:54:06.701Z,5.20
2022-12-25T00:56:33.659Z,5.60
2022-12-25T00:59:00.230Z,5.30
2022-12-25T01:01:26.956Z,5.37
2022-12-25T01:03:53.582Z,5.13
2022-12-25T01:06:20.155Z,5.10
2022-12-25T01:09:05.185Z,4.80
2022-12-25T01:11:32.176Z,5.50
2022-12-25T01:13:58.844Z,5.57
2022-12-25T01:16:25.743Z,5.57
2022-12-25T01:18:52.336Z,5.00
2022-12-25T01:21:22.949Z,5.30
2022-12-25T01:23:51.667Z,4.77
2022-12-25T01:26:19.823Z,4.90
2022-12-25T01:28:46.687Z,5.57
2022-12-25T01:31:15.912Z,5.40
2022-12-25T01:33:43.916Z,5.13
2022-12-25T01:36:18.944Z,5.03
2022-12-25T01:38:46.451Z,4.90
2022-12-25T01:41:15.292Z,5.07
2022-12-25T01:43:57.547Z,5.20
2022-12-25T01:46:24.472Z,4.80
2022-12-25T01:48:53.187Z,5.40
2022-12-25T01:51:42.984Z,4.80
2022-12-25T01:54:15.105Z,4.87
2022-12-25T01:56:45.382Z,4.90
2022-12-25T01:59:16.362Z,5.10
2022-12-25T02:01:43.153Z,5.67
2022-12-25T02:04:19.457Z,5.20
2022-12-25T02:06:48.036Z,5.67
2022-12-25T02:09:15.492Z,5.30
2022-12-25T02:11:57.095Z,5.27
2022-12-25T02:14:25.441Z,5.70
2022-12-25T02:17:01.879Z,5.20
2022-12-25T02:19:56.213Z,5.13
2022-12-25T02:22:48.913Z,5.43
2022-12-25T02:25:55.561Z,5.60
2022-12-25T02:28:52.111Z,5.63
2022-12-25T02:31:29.038Z,5.47
2022-12-25T02:34:17.652Z,5.17
2022-12-25T02:36:57.991Z,5.60
2022-12-25T02:39:58.634Z,4.93
2022-12-25T02:42:54.376Z,5.20
2022-12-25T02:45:49.610Z,5.20
2022-12-25T02:48:37.049Z,4.90
2022-12-25T02:51:25.143Z,5.10
2022-12-25T02:54:13.546Z,4.90
2022-12-25T02:57:01.541Z,4.70
2022-12-25T02:59:49.949Z,5.20
2022-12-25T03:02:37.076Z,5.20
2022-12-25T03:05:25.895Z,5.67
2022-12-25T03:07:52.716Z,6.10
2022-12-25T03:10:39.843Z,5.97
2022-12-25T03:13:14.744Z,5.60
2022-12-25T03:15:59.832Z,5.27
2022-12-25T03:18:30.160Z,5.53
2022-12-25T03:21:15.616Z,5.53
2022-12-25T03:24:21.712Z,5.33
2022-12-25T03:26:54.812Z,5.77
2022-12-25T03:29:45.737Z,5.77
2022-12-25T03:32:32.350Z,5.27
2022-12-25T03:35:25.192Z,5.37
2022-12-25T03:38:32.039Z,5.27
2022-12-25T03:41:32.402Z,5.90
2022-12-25T03:44:41.708Z,6.23
2022-12-25T03:47:57.578Z,6.33
2022-12-25T03:50:54.108Z,5.93
2022-12-25T03:53:45.991Z,5.60
2022-12-25T03:56:31.903Z,5.47
2022-12-25T03:59:23.101Z,6.17
2022-12-25T04:02:09.394Z,5.67
2022-12-25T04:04:54.582Z,5.53
2022-12-25T04:07:39.927Z,5.80
2022-12-25T04:10:26.103Z,5.50
2022-12-25T04:13:11.142Z,5.50
2022-12-25T04:15:56.351Z,5.07
2022-12-25T04:18:41.812Z,5.30
2022-12-25T04:21:27.157Z,5.37
2022-12-25T04:24:12.557Z,5.27
2022-12-25T04:26:57.848Z,5.17
2022-12-25T04:29:43.321Z,4.70
2022-12-25T04:32:28.403Z,5.27
2022-12-25T04:35:13.836Z,5.20
2022-12-25T04:37:40.397Z,4.90
2022-12-25T04:40:07.482Z,5.03
2022-12-25T04:42:34.103Z,5.30
2022-12-25T04:45:00.712Z,5.00
2022-12-25T04:47:27.280Z,4.70
2022-12-25T04:49:53.817Z,5.10
2022-12-25T04:52:20.368Z,5.60
2022-12-25T04:54:46.986Z,5.33
2022-12-25T04:57:13.547Z,5.37
2022-12-25T04:59:40.095Z,5.20
2022-12-25T05:02:06.829Z,5.07
2022-12-25T05:04:33.589Z,5.80
2022-12-25T05:07:00.389Z,5.20
2022-12-25T05:09:27.059Z,5.80
2022-12-25T05:11:53.630Z,5.23
2022-12-25T05:14:20.171Z,4.90
2022-12-25T05:16:46.875Z,5.27
2022-12-25T05:19:13.589Z,5.13
2022-12-25T05:21:40.158Z,4.60
2022-12-25T05:24:06.996Z,5.27
2022-12-25T05:26:33.557Z,4.40
2022-12-25T05:29:00.177Z,4.50
2022-12-25T05:31:26.764Z,4.30
2022-12-25T05:33:53.385Z,5.07
2022-12-25T05:36:20.089Z,4.50
2022-12-25T05:38:46.777Z,5.17
2022-12-25T05:41:13.447Z,4.23
2022-12-25T05:43:41.039Z,4.27
2022-12-25T05:46:09.690Z,4.10
2022-12-25T05:48:37.705Z,4.60
2022-12-25T05:51:09.473Z,4.30
2022-12-25T05:53:37.272Z,4.67
2022-12-25T05:56:06.237Z,4.30
2022-12-25T05:58:35.018Z,4.73
2022-12-25T06:01:02.275Z,4.70
2022-12-25T06:03:28.939Z,4.80
2022-12-25T06:05:55.803Z,5.73
2022-12-25T06:08:22.394Z,5.10
2022-12-25T06:10:49.221Z,4.93
2022-12-25T06:13:15.845Z,5.20
2022-12-25T06:15:42.677Z,5.00
2022-12-25T06:18:09.587Z,4.93
2022-12-25T06:20:36.605Z,5.30
2022-12-25T06:23:03.218Z,5.23
2022-12-25T06:25:29.752Z,5.30
2022-12-25T06:27:56.303Z,5.73
2022-12-25T06:30:22.939Z,5.50
2022-12-25T06:32:49.480Z,5.50
2022-12-25T06:35:16.096Z,5.40
2022-12-25T06:37:42.643Z,5.30
2022-12-25T06:40:09.475Z,5.70
2022-12-25T06:42:36.003Z,5.40
2022-12-25T06:45:02.570Z,5.60
2022-12-25T06:47:29.120Z,6.27
2022-12-25T06:49:55.685Z,6.20
2022-12-25T06:52:22.330Z,5.70
2022-12-25T06:54:49.125Z,5.63
2022-12-25T06:57:15.668Z,6.00
2022-12-25T06:59:42.351Z,6.03
2022-12-25T07:02:18.387Z,6.00
2022-12-25T07:04:45.461Z,6.00
2022-12-25T07:07:12.116Z,5.87
2022-12-25T07:09:39.280Z,5.50
2022-12-25T07:12:20.003Z,5.97
2022-12-25T07:14:50.176Z,5.60
2022-12-25T07:17:17.528Z,6.20
2022-12-25T07:19:45.322Z,6.07
2022-12-25T07:22:13.505Z,6.03
2022-12-25T07:24:40.511Z,5.70
2022-12-25T07:27:08.141Z,6.20
2022-12-25T07:29:35.238Z,5.80
2022-12-25T07:32:01.913Z,5.80
2022-12-25T07:34:28.519Z,6.13
2022-12-25T07:36:55.170Z,5.70
2022-12-25T07:39:21.926Z,5.67
2022-12-25T07:41:48.544Z,6.00
2022-12-25T07:44:15.877Z,6.37
2022-12-25T07:46:43.008Z,5.13
2022-12-25T07:49:11.043Z,5.60
2022-12-25T07:51:37.913Z,5.47
2022-12-25T07:54:04.679Z,5.50
2022-12-25T07:56:31.328Z,5.20
2022-12-25T07:58:57.879Z,5.00
2022-12-25T08:01:26.802Z,4.90
2022-12-25T08:03:55.791Z,5.63
2022-12-25T08:06:26.640Z,5.07
2022-12-25T08:08:53.285Z,4.80
2022-12-25T08:11:19.912Z,5.23
2022-12-25T08:13:46.722Z,4.90
2022-12-25T08:16:13.523Z,4.90
2022-12-25T08:18:40.575Z,4.77
2022-12-25T08:21:10.499Z,5.00
2022-12-25T08:23:39.563Z,4.80
2022-12-25T08:26:08.416Z,5.07
2022-12-25T08:28:35.674Z,5.70
2022-12-25T08:31:11.032Z,4.93
2022-12-25T08:33:38.538Z,5.00
2022-12-25T08:36:07.804Z,5.40
2022-12-25T08:38:34.377Z,5.00
2022-12-25T08:41:00.995Z,5.27
2022-12-25T08:43:27.526Z,4.90
2022-12-25T08:45:54.156Z,5.57
2022-12-25T08:48:20.835Z,6.07
2022-12-25T08:50:49.021Z,5.60
2022-12-25T08:53:15.890Z,5.17
2022-12-25T08:55:42.574Z,6.20
2022-12-25T08:58:09.773Z,5.57
2022-12-25T09:00:36.928Z,6.13
2022-12-25T09:03:04.353Z,6.00
2022-12-25T09:05:31.184Z,6.80
2022-12-25T09:07:57.878Z,5.60
2022-12-25T09:10:24.460Z,6.70
2022-12-25T09:12:51.019Z,5.60
2022-12-25T09:15:17.799Z,6.47
2022-12-25T09:17:44.351Z,5.97
2022-12-25T09:20:11.046Z,6.40
2022-12-25T09:22:37.624Z,6.60
2022-12-25T09:25:04.506Z,7.87
2022-12-25T09:27:31.067Z,19.63
2022-12-25T09:29:57.626Z,11.07
2022-12-25T09:32:24.171Z,10.23
2022-12-25T09:34:51.605Z,8.63
2022-12-25T09:37:18.177Z,9.13
2022-12-25T09:39:46.524Z,8.40
2022-12-25T09:42:20.435Z,8.30
2022-12-25T09:44:51.461Z,8.03
2022-12-25T09:47:25.391Z,8.10
2022-12-25T09:50:19.324Z,8.20
2022-12-25T09:53:05.471Z,8.30
2022-12-25T09:55:36.256Z,8.43
2022-12-25T09:58:10.397Z,7.50
2022-12-25T10:00:58.370Z,7.57
2022-12-25T10:03:58.660Z,7.40
2022-12-25T10:07:01.284Z,7.50
2022-12-25T10:09:45.258Z,7.40
2022-12-25T10:13:04.270Z,7.67
2022-12-25T10:15:39.236Z,7.10
2022-12-25T10:18:36.585Z,7.13
2022-12-25T10:21:11.060Z,6.83
2022-12-25T10:23:44.263Z,7.53
2022-12-25T10:26:22.203Z,7.77
2022-12-25T10:28:58.511Z,7.23
2022-12-25T10:31:28.300Z,7.37
2022-12-25T10:33:55.022Z,7.83
2022-12-25T10:36:27.947Z,7.87
2022-12-25T10:38:55.142Z,7.90
2022-12-25T10:41:56.651Z,7.47
2022-12-25T10:44:26.661Z,8.00
2022-12-25T10:47:01.603Z,7.87
2022-12-25T10:49:38.975Z,7.60
2022-12-25T10:52:21.247Z,7.43
2022-12-25T10:54:47.840Z,7.93
2022-12-25T10:57:17.031Z,7.67
2022-12-25T10:59:44.887Z,8.20
2022-12-25T11:02:21.151Z,8.33
2022-12-25T11:04:48.448Z,8.80
2022-12-25T11:07:17.803Z,8.67
2022-12-25T11:10:05.399Z,8.70
2022-12-25T11:12:36.868Z,8.90
2022-12-25T11:15:24.238Z,9.20
2022-12-25T11:17:50.809Z,9.93
2022-12-25T11:20:20.172Z,10.03
2022-12-25T11:22:48.606Z,10.10
2022-12-25T11:25:22.703Z,10.73
2022-12-25T11:28:04.662Z,10.50
2022-12-25T11:30:33.168Z,11.03
2022-12-25T11:33:05.972Z,11.03
2022-12-25T11:35:45.911Z,10.60
2022-12-25T11:38:12.548Z,11.03
2022-12-25T11:41:03.809Z,10.53
2022-12-25T11:43:39.166Z,10.67
2022-12-25T11:46:38.037Z,10.90
2022-12-25T11:49:10.591Z,10.57
2022-12-25T11:51:41.903Z,14.63
2022-12-25T11:54:17.899Z,10.07
2022-12-25T11:56:44.513Z,10.60
2022-12-25T11:59:27.461Z,10.03
2022-12-25T12:02:19.029Z,10.90
2022-12-25T12:04:50.851Z,14.57
2022-12-25T12:07:24.228Z,17.67
2022-12-25T12:10:09.033Z,14.07
2022-12-25T12:13:01.701Z,12.10
2022-12-25T12:15:42.281Z,16.27
2022-12-25T12:18:20.812Z,11.43
2022-12-25T12:21:09.345Z,12.60
2022-12-25T12:24:00.721Z,13.50
2022-12-25T12:26:29.345Z,13.53
2022-12-25T12:28:59.261Z,13.00
2022-12-25T12:31:40.830Z,12.60
2022-12-25T12:34:20.621Z,12.40
2022-12-25T12:36:47.308Z,12.47
2022-12-25T12:39:24.619Z,13.17
2022-12-25T12:41:51.266Z,12.27
2022-12-25T12:44:18.301Z,12.50
2022-12-25T12:46:53.532Z,12.23
2022-12-25T12:49:24.862Z,12.30
2022-12-25T12:52:20.725Z,11.93
2022-12-25T12:55:05.376Z,12.20
2022-12-25T12:57:39.161Z,11.90
2022-12-25T13:00:10.692Z,11.67
2022-12-25T13:02:56.512Z,11.83
2022-12-25T13:05:50.448Z,12.63
2022-12-25T13:08:23.147Z,11.77
2022-12-25T13:11:02.528Z,12.13
2022-12-25T13:13:37.072Z,12.00
2022-12-25T13:16:03.956Z,13.73
2022-12-25T13:18:31.625Z,14.30
2022-12-25T13:21:02.023Z,14.23
2022-12-25T13:23:34.351Z,14.60
2022-12-25T13:26:11.054Z,15.20
2022-12-25T13:28:37.688Z,18.70
2022-12-25T13:31:12.949Z,27.80
2022-12-25T13:33:41.733Z,22.73
2022-12-25T13:36:13.590Z,18.27
2022-12-25T13:38:49.079Z,12.33
2022-12-25T13:41:40.960Z,12.70
2022-12-25T13:44:28.521Z,12.37
2022-12-25T13:46:55.173Z,11.63
2022-12-25T13:49:24.286Z,11.80
2022-12-25T13:51:51.472Z,11.27
2022-12-25T13:54:19.077Z,11.47
2022-12-25T13:56:51.610Z,11.63
2022-12-25T13:59:21.548Z,12.37
2022-12-25T14:01:50.168Z,12.10
2022-12-25T14:04:23.354Z,11.83
2022-12-25T14:06:51.646Z,12.90
2022-12-25T14:09:19.122Z,11.33
2022-12-25T14:11:50.174Z,12.27
2022-12-25T14:14:25.503Z,12.50
2022-12-25T14:16:56.847Z,11.87
2022-12-25T14:19:34.314Z,12.27
2022-12-25T14:22:22.017Z,12.00
2022-12-25T14:24:49.156Z,12.70
2022-12-25T14:27:25.886Z,12.97
2022-12-25T14:29:56.739Z,12.30
2022-12-25T14:32:27.378Z,13.00
2022-12-25T14:35:01.565Z,13.60
2022-12-25T14:37:31.042Z,13.90
2022-12-25T14:40:05.052Z,13.63
2022-12-25T14:42:34.903Z,13.23
2022-12-25T14:45:07.716Z,14.17
2022-12-25T14:47:50.864Z,14.00
2022-12-25T14:50:41.568Z,14.43
2022-12-25T14:53:20.575Z,13.63
2022-12-25T14:55:52.965Z,13.20
2022-12-25T14:58:25.978Z,13.10
2022-12-25T15:01:04.283Z,12.43
2022-12-25T15:03:36.690Z,11.93
2022-12-25T15:06:06.080Z,11.67
2022-12-25T15:08:34.850Z,11.13
2022-12-25T15:11:03.223Z,10.63
2022-12-25T15:13:31.356Z,9.87
2022-12-25T15:16:07.907Z,9.23
2022-12-25T15:18:39.587Z,9.67
2022-12-25T15:21:06.879Z,9.17
2022-12-25T15:23:33.469Z,8.73
2022-12-25T15:26:00.044Z,7.50
2022-12-25T15:28:26.587Z,7.07
2022-12-25T15:30:53.197Z,6.80
2022-12-25T15:33:19.844Z,6.00
2022-12-25T15:35:46.713Z,5.07
2022-12-25T15:38:14.260Z,5.87
2022-12-25T15:40:41.524Z,5.30
2022-12-25T15:43:38.824Z,5.60
2022-12-25T15:45:58.475Z,4.40
2022-12-25T15:48:25.071Z,4.97
2022-12-25T15:50:51.636Z,4.60
2022-12-25T15:53:18.376Z,4.90
2022-12-25T15:55:44.957Z,4.43
2022-12-25T15:58:12.909Z,5.20
2022-12-25T16:00:39.473Z,4.73
2022-12-25T16:03:06.194Z,4.50
2022-12-25T16:05:32.862Z,5.13
2022-12-25T16:07:59.393Z,5.67
2022-12-25T16:10:26.070Z,5.10
2022-12-25T16:12:52.829Z,6.03
2022-12-25T16:15:19.419Z,5.70
2022-12-25T16:17:45.980Z,5.57
2022-12-25T16:20:12.868Z,5.20
2022-12-25T16:22:39.889Z,5.67
2022-12-25T16:25:15.406Z,5.27
2022-12-25T16:27:42.134Z,10.60
2022-12-25T16:30:10.374Z,9.90
2022-12-25T16:32:37.022Z,10.57
2022-12-25T16:35:04.035Z,54.87
2022-12-25T16:37:30.668Z,35.97
2022-12-25T16:39:57.208Z,9.63
2022-12-25T16:42:23.811Z,11.20
2022-12-25T16:44:50.388Z,7.50
2022-12-25T16:47:17.540Z,6.17
2022-12-25T16:49:44.140Z,5.20
2022-12-25T16:52:11.065Z,6.17
2022-12-25T16:54:37.662Z,6.10
2022-12-25T16:57:04.261Z,5.77
2022-12-25T16:59:31.220Z,5.60
2022-12-25T17:01:57.908Z,5.27
2022-12-25T17:04:25.185Z,5.40
2022-12-25T17:06:51.737Z,5.70
2022-12-25T17:09:18.282Z,5.40
2022-12-25T17:11:44.858Z,5.37
2022-12-25T17:14:11.685Z,5.07
2022-12-25T17:16:38.509Z,5.20
2022-12-25T17:19:12.050Z,4.43
2022-12-25T17:21:38.853Z,4.97
2022-12-25T17:24:05.960Z,5.20
2022-12-25T17:26:33.115Z,4.00
2022-12-25T17:29:00.140Z,5.10
2022-12-25T17:31:27.136Z,4.47
2022-12-25T17:33:53.999Z,5.20
2022-12-25T17:36:21.529Z,4.90
2022-12-25T17:38:48.599Z,4.50
2022-12-25T17:41:16.814Z,4.80
2022-12-25T17:43:45.511Z,4.90
2022-12-25T17:46:15.412Z,5.07
2022-12-25T17:48:42.431Z,5.23
2022-12-25T17:51:15.985Z,4.47
2022-12-25T17:53:45.244Z,4.30
2022-12-25T17:56:13.692Z,4.87
2022-12-25T17:58:40.708Z,5.20
2022-12-25T18:01:12.723Z,5.03
2022-12-25T18:03:39.604Z,5.30
2022-12-25T18:06:08.697Z,5.40
2022-12-25T18:08:39.552Z,4.77
2022-12-25T18:11:13.596Z,5.17
2022-12-25T18:13:43.039Z,4.50
2022-12-25T18:16:11.249Z,5.40
2022-12-25T18:18:38.609Z,5.27
2022-12-25T18:21:06.989Z,4.70
2022-12-25T18:23:34.088Z,5.03
2022-12-25T18:26:02.486Z,5.87
2022-12-25T18:28:29.459Z,4.73
2022-12-25T18:30:56.261Z,5.30
2022-12-25T18:33:22.982Z,7.33
2022-12-25T18:35:49.567Z,4.90
2022-12-25T18:38:16.884Z,6.30
2022-12-25T18:40:45.336Z,5.73
2022-12-25T18:43:12.738Z,5.80
2022-12-25T18:45:39.710Z,6.33
2022-12-25T18:48:06.489Z,6.67
2022-12-25T18:50:34.666Z,5.50
2022-12-25T18:53:01.967Z,5.70
2022-12-25T18:55:28.702Z,5.10
2022-12-25T18:57:56.052Z,5.43
2022-12-25T19:00:23.488Z,5.63
2022-12-25T19:02:50.441Z,5.27
2022-12-25T19:05:17.298Z,5.27
2022-12-25T19:07:43.854Z,5.53
2022-12-25T19:10:10.579Z,5.90
2022-12-25T19:12:37.189Z,5.43
2022-12-25T19:15:04.026Z,5.60
2022-12-25T19:17:32.061Z,5.47
2022-12-25T19:19:59.034Z,6.60
2022-12-25T19:22:25.726Z,5.07
2022-12-25T19:24:52.278Z,5.70
2022-12-25T19:27:18.864Z,5.73
2022-12-25T19:29:45.400Z,5.57
2022-12-25T19:32:11.961Z,6.07
2022-12-25T19:34:38.511Z,5.27
2022-12-25T19:37:05.813Z,4.83
2022-12-25T19:39:32.475Z,5.30
2022-12-25T19:41:59.020Z,5.47
2022-12-25T19:44:25.695Z,5.23
2022-12-25T19:46:52.279Z,5.17
2022-12-25T19:49:18.986Z,4.63
2022-12-25T19:51:46.332Z,5.07
2022-12-25T19:54:20.325Z,4.37
2022-12-25T19:56:48.196Z,5.00
2022-12-25T19:59:14.912Z,4.40
2022-12-25T20:01:41.750Z,5.27
2022-12-25T20:04:09.723Z,4.47
2022-12-25T20:06:38.707Z,4.40
2022-12-25T20:09:08.677Z,4.67
2022-12-25T20:11:36.946Z,4.93
2022-12-25T20:14:05.514Z,4.90
2022-12-25T20:16:32.569Z,4.80
2022-12-25T20:18:59.410Z,4.10
2022-12-25T20:21:29.830Z,4.80
2022-12-25T20:23:57.032Z,4.63
2022-12-25T20:26:26.305Z,5.07
2022-12-25T20:28:53.396Z,4.70
2022-12-25T20:31:22.411Z,4.87
2022-12-25T20:33:49.120Z,5.20
2022-12-25T20:36:15.770Z,5.03
2022-12-25T20:38:42.454Z,4.93
2022-12-25T20:41:31.202Z,4.83
2022-12-25T20:43:57.904Z,5.13
2022-12-25T20:46:25.750Z,4.90
2022-12-25T20:48:53.239Z,5.20
2022-12-25T20:51:22.348Z,5.37
2022-12-25T20:53:49.356Z,5.50
2022-12-25T20:56:18.459Z,4.63
2022-12-25T20:58:45.202Z,5.33
2022-12-25T21:01:15.255Z,4.93
2022-12-25T21:03:42.256Z,4.80
2022-12-25T21:06:09.535Z,4.70
2022-12-25T21:08:36.951Z,4.53
2022-12-25T21:11:04.396Z,4.27
2022-12-25T21:13:37.560Z,4.60
2022-12-25T21:16:10.345Z,4.70
2022-12-25T21:18:36.988Z,4.33
2022-12-25T21:21:07.161Z,4.80
2022-12-25T21:23:35.140Z,4.93
2022-12-25T21:26:10.539Z,5.00
2022-12-25T21:28:37.242Z,5.13
2022-12-25T21:31:06.134Z,5.57
2022-12-25T21:33:51.518Z,5.10
2022-12-25T21:36:19.569Z,5.87
2022-12-25T21:38:46.465Z,6.23
2022-12-25T21:41:14.708Z,5.30
2022-12-25T21:43:42.881Z,5.90
2022-12-25T21:46:12.154Z,5.57
2022-12-25T21:48:39.710Z,6.47
2022-12-25T21:51:30.857Z,5.50
2022-12-25T21:53:58.100Z,6.13
2022-12-25T21:56:25.484Z,6.20
2022-12-25T21:58:52.184Z,6.33
2022-12-25T22:01:18.882Z,6.37
2022-12-25T22:03:46.130Z,7.10
2022-12-25T22:06:31.525Z,7.47
2022-12-25T22:08:58.125Z,7.20
2022-12-25T22:11:45.149Z,7.13
2022-12-25T22:14:52.100Z,7.10
2022-12-25T22:17:43.048Z,7.60
2022-12-25T22:20:12.049Z,7.00
2022-12-25T22:22:38.608Z,7.67
2022-12-25T22:25:06.907Z,7.63
2022-12-25T22:27:36.189Z,7.07
2022-12-25T22:30:03.693Z,7.53
2022-12-25T22:32:30.280Z,7.17
2022-12-25T22:34:56.908Z,6.90
2022-12-25T22:37:24.186Z,6.37
2022-12-25T22:39:50.751Z,6.70
2022-12-25T22:42:17.340Z,6.63
2022-12-25T22:44:45.830Z,6.27
2022-12-25T22:47:12.402Z,6.10
2022-12-25T22:49:39.411Z,4.80
2022-12-25T22:52:07.997Z,5.87
2022-12-25T22:54:34.661Z,5.90
2022-12-25T22:57:01.330Z,5.57
2022-12-25T22:59:28.285Z,4.87
2022-12-25T23:01:55.324Z,5.00
2022-12-25T23:04:22.708Z,5.30
2022-12-25T23:06:49.461Z,3.80
2022-12-25T23:09:24.203Z,4.27
2022-12-25T23:11:51.346Z,3.43
2022-12-25T23:14:36.609Z,3.67
2022-12-25T23:17:03.160Z,3.40
2022-12-25T23:19:48.455Z,3.67
2022-12-25T23:22:33.856Z,4.00
2022-12-25T23:25:19.279Z,3.13
2022-12-25T23:27:46.053Z,3.03
2022-12-25T23:30:16.242Z,3.33
2022-12-25T23:32:43.821Z,2.83
2022-12-25T23:35:11.544Z,3.60
2022-12-25T23:37:38.133Z,3.50
2022-12-25T23:40:05.276Z,4.27
2022-12-25T23:42:31.884Z,3.83
2022-12-25T23:44:58.419Z,3.57
2022-12-25T23:47:24.975Z,3.63
2022-12-25T23:49:51.548Z,3.60
2022-12-25T23:52:18.176Z,3.60
2022-12-25T23:54:44.725Z,3.43
2022-12-25T23:57:11.286Z,4.13
2022-12-25T23:59:37.908Z,4.17
